This demonstration page uses our WeatherBlox Daily Observations layout. Learn more.

Hourly Observations for June 6, 2020

Temp ( °F °C ) Dew Point ( °F °C ) Humidity (%) Winds ( mph kmh ) Pressure ( in mb ) Visibility ( mi km ) Precip ( " mm )
12:54 am 00:54 Clear 80 26.7 68 20 67 67 SE 10 17 29.9 1013 10 16.0934 0 0
1:54 am 01:54 Clear 79 26.1 69 20.6 72 72 SE 9 15 29.89 1012 10 16.0934 0 0
2:54 am 02:54 Clear 78 25.6 68 20 71 71 SE 8 13 29.88 1012 10 16.0934 0 0
3:54 am 03:54 Clear 77 25 68 20 74 74 ESE 7 11 29.89 1012 10 16.0934 0 0
4:54 am 04:54 Clear 76 24.4 68 20 77 77 ESE 8 13 29.89 1012 10 16.0934 0 0
5:54 am 05:54 Clear 74 23.3 68 20 82 82 ESE 6 9 29.9 1013 10 16.0934 0 0
6:54 am 06:54 Sunny 75 23.9 68 20 79 79 SE 8 13 29.9 1013 10 16.0934 0 0
7:54 am 07:54 Sunny 76 24.4 69 20.6 79 79 SE 8 13 29.92 1013 10 16.0934 0 0
8:54 am 08:54 Mostly Cloudy 77 25 69 20.6 77 77 SE 8 13 29.94 1014 10 16.0934 0 0
9:54 am 09:54 Sunny 80 26.7 71 21.7 74 74 SE 8 13 29.91 1013 10 16.0934 0 0
10:54 am 10:54 Sunny 84 28.9 72 22.2 67 67 SE 15 24 29.87 1012 10 16.0934 0 0
11:54 am 11:54 Sunny 90 32.2 73 22.8 58 58 SSE 14 22 29.87 1011 10 16.0934 0 0
12:54 pm 12:54 Sunny 93 33.9 71 21.7 49 49 S 20 31 29.84 1011 10 16.0934 0 0
1:54 pm 13:54 Sunny 93 33.9 70 21.1 47 47 S 14 22 29.83 1010 10 16.0934 0 0
2:54 pm 14:54 Sunny 94 34.4 69 20.6 44 44 S 21 33 29.81 1010 10 16.0934 0 0
3:54 pm 15:54 Sunny 92 33.3 70 21.1 49 49 SSE 14 22 29.8 1009 10 16.0934 0 0
4:54 pm 16:54 Sunny 92 33.3 70 21.1 49 49 S 16 26 29.79 1009 10 16.0934 0 0
5:54 pm 17:54 Sunny 91 32.8 68 20 47 47 S 18 30 29.78 1008 10 16.0934 0 0
6:54 pm 18:54 Mostly Sunny 90 32.2 70 21.1 52 52 SSE 14 22 29.77 1008 10 16.0934 0 0
7:54 pm 19:54 Sunny 88 31.1 69 20.6 54 54 SSE 15 24 29.77 1008 10 16.0934 0 0
8:54 pm 20:54 Sunny 86 30 70 21.1 59 59 SSE 15 24 29.76 1008 10 16.0934 0 0
9:54 pm 21:54 Clear 85 29.4 70 21.1 61 61 SSE 16 26 29.77 1008 10 16.0934 0 0
10:54 pm 22:54 Clear 84 28.9 70 21.1 63 63 SSE 17 28 29.78 1009 10 16.0934 0 0
11:54 pm 23:54 Clear 83 28.3 72 22.2 70 70 SSE 16 26 29.8 1009 10 16.0934 0 0

Powered by AerisWeather